Time;durP1;ratioP1;P1;durP2;ratioP2;P2;SDS_P1;SDS_P2;PMS_P1;PMS_P2;Temp;Humidity;BMP_temperature;BMP_pressure;BME280_temperature;BME280_humidity;BME280_pressure;Samples;Min_cycle;Max_cycle;Signal;HPM_P1;HPM_P2
2022/10/21 00:01:50;;;;;;;4.45;2.50;;;19.10;69.20;;;;;;2343321;53;21019;-81
2022/10/21 00:04:17;;;;;;;7.68;2.50;;;19.10;69.10;;;;;;2379273;53;20948;-82
2022/10/21 00:06:43;;;;;;;5.62;2.47;;;19.10;69.10;;;;;;2369973;53;20979;-82
2022/10/21 00:09:09;;;;;;;3.70;2.08;;;19.10;69.00;;;;;;2330424;53;21014;-82
2022/10/21 00:11:36;;;;;;;4.60;2.67;;;19.10;69.00;;;;;;2568155;53;20995;-81
2022/10/21 00:14:03;;;;;;;5.22;3.22;;;19.10;68.90;;;;;;2501723;53;20935;-82
2022/10/21 00:16:33;;;;;;;4.65;3.10;;;19.10;68.80;;;;;;2344027;53;20963;-81
2022/10/21 00:19:03;;;;;;;4.20;2.60;;;19.20;68.90;;;;;;2376029;53;20930;-82
2022/10/21 00:21:30;;;;;;;6.87;2.97;;;19.10;68.80;;;;;;2368354;53;20936;-82
2022/10/21 00:23:57;;;;;;;4.32;2.70;;;19.10;68.80;;;;;;2342122;53;20947;-82
2022/10/21 00:26:23;;;;;;;4.28;2.85;;;19.10;68.70;;;;;;2345771;53;20911;-82
2022/10/21 00:28:55;;;;;;;4.53;3.30;;;19.10;68.70;;;;;;2372566;53;20972;-81
2022/10/21 00:31:21;;;;;;;4.43;2.92;;;19.10;68.70;;;;;;2383488;53;20974;-81
2022/10/21 00:33:48;;;;;;;4.00;2.55;;;19.10;68.70;;;;;;2343214;54;21718;-82
2022/10/21 00:36:15;;;;;;;3.85;2.50;;;19.10;68.70;;;;;;2589120;53;20904;-82
2022/10/21 00:38:47;;;;;;;3.85;2.22;;;19.10;68.70;;;;;;2432325;53;20991;-82
2022/10/21 00:41:14;;;;;;;3.75;2.37;;;19.10;68.50;;;;;;2491658;53;21571;-82
2022/10/21 00:44:06;;;;;;;4.32;2.47;;;19.10;68.40;;;;;;2343108;53;20947;-82
2022/10/21 00:46:35;;;;;;;3.60;2.03;;;19.00;68.20;;;;;;2336167;54;20970;-82
2022/10/21 00:49:17;;;;;;;3.47;2.10;;;19.00;68.20;;;;;;2344048;53;20915;-82
2022/10/21 00:51:44;;;;;;;4.60;2.80;;;19.00;68.10;;;;;;2406930;54;21006;-82
2022/10/21 00:54:14;;;;;;;3.65;2.47;;;19.00;68.20;;;;;;2346403;53;20944;-82
2022/10/21 00:56:43;;;;;;;3.53;2.03;;;19.00;68.20;;;;;;2391489;53;21424;-81
2022/10/21 00:59:09;;;;;;;5.68;2.58;;;19.00;68.20;;;;;;2343649;54;20963;-82
2022/10/21 01:01:35;;;;;;;5.00;3.05;;;18.90;68.10;;;;;;2353562;53;20943;-82
2022/10/21 01:04:02;;;;;;;4.45;2.40;;;18.90;68.10;;;;;;2438610;53;21286;-82
2022/10/21 01:06:28;;;;;;;3.60;2.10;;;18.90;68.20;;;;;;2416551;53;20993;-82
2022/10/21 01:08:55;;;;;;;4.95;2.17;;;18.80;68.00;;;;;;2359133;53;20927;-82
2022/10/21 01:11:22;;;;;;;5.32;2.85;;;18.80;68.00;;;;;;2343904;53;20990;-81
2022/10/21 01:17:08;;;;;;;4.32;2.70;;;18.80;67.90;;;;;;2390719;53;20952;-81
2022/10/21 01:27:41;;;;;;;4.78;1.83;;;18.80;68.00;;;;;;2377075;53;21040;-81
2022/10/21 01:31:15;;;;;;;3.50;1.45;;;18.70;67.50;;;;;;2355588;53;21064;-81
2022/10/21 01:33:44;;;;;;;4.80;1.83;;;18.60;67.70;;;;;;2343758;53;21081;-81
2022/10/21 01:36:24;;;;;;;7.20;2.83;;;18.60;67.90;;;;;;2376756;53;20923;-82
2022/10/21 01:40:44;;;;;;;5.85;2.25;;;18.60;68.10;;;;;;2343316;53;20982;-81
2022/10/21 01:44:55;;;;;;;6.78;2.05;;;18.50;68.10;;;;;;2343308;54;21789;-82
2022/10/21 01:47:33;;;;;;;7.05;1.50;;;18.50;68.40;;;;;;2390527;53;20967;-82
2022/10/21 01:50:14;;;;;;;3.78;1.30;;;18.50;68.50;;;;;;2342139;53;21011;-81
2022/10/21 01:52:43;;;;;;;3.75;2.08;;;18.50;68.60;;;;;;2410501;53;20994;-82
2022/10/21 01:55:12;;;;;;;3.42;1.75;;;18.50;68.80;;;;;;2503004;53;21067;-81
2022/10/21 01:57:47;;;;;;;4.15;1.85;;;18.50;68.90;;;;;;2351094;53;20951;-82
2022/10/21 02:00:19;;;;;;;4.90;1.70;;;18.50;69.00;;;;;;2421874;53;21583;-82
2022/10/21 02:02:47;;;;;;;3.70;1.80;;;18.50;69.10;;;;;;2343365;53;21027;-81
2022/10/21 02:05:19;;;;;;;4.65;2.17;;;18.50;69.20;;;;;;2353678;53;20983;-82
2022/10/21 02:07:46;;;;;;;5.37;2.00;;;18.60;69.40;;;;;;2343153;53;21482;-82
2022/10/21 02:10:18;;;;;;;3.87;1.90;;;18.60;69.40;;;;;;2361145;53;20959;-82
2022/10/21 02:12:44;;;;;;;4.47;1.70;;;18.60;69.50;;;;;;2361411;53;21023;-82
2022/10/21 02:15:11;;;;;;;6.32;2.15;;;18.70;69.60;;;;;;2367288;53;21011;-82
2022/10/21 02:17:38;;;;;;;3.83;1.60;;;18.70;69.70;;;;;;2366722;53;21018;-82
2022/10/21 02:20:06;;;;;;;3.35;1.65;;;18.70;69.70;;;;;;2343337;53;20894;-82
2022/10/21 02:22:33;;;;;;;7.72;1.98;;;18.70;69.70;;;;;;2415900;53;20999;-83
2022/10/21 02:25:02;;;;;;;5.78;1.70;;;18.70;69.60;;;;;;2343840;53;20943;-82
2022/10/21 02:27:28;;;;;;;6.18;1.83;;;18.80;69.80;;;;;;2359680;53;20919;-82
2022/10/21 02:29:56;;;;;;;4.72;1.90;;;18.80;69.80;;;;;;2343260;54;20927;-82
2022/10/21 02:32:43;;;;;;;6.75;2.08;;;18.80;69.80;;;;;;2414848;53;20975;-82
2022/10/21 02:35:33;;;;;;;3.35;1.65;;;18.80;69.80;;;;;;2345287;53;20992;-83
2022/10/21 02:38:02;;;;;;;4.28;1.95;;;18.90;69.80;;;;;;2342644;53;20947;-82
2022/10/21 02:40:36;;;;;;;3.58;1.85;;;18.90;69.80;;;;;;2345712;53;21023;-82
2022/10/21 02:43:24;;;;;;;3.25;1.50;;;18.90;69.80;;;;;;2327462;54;21069;-81
2022/10/21 02:45:57;;;;;;;5.28;1.92;;;19.00;69.90;;;;;;2346148;53;20948;-82
2022/10/21 02:48:23;;;;;;;6.32;1.73;;;19.00;69.90;;;;;;2342739;53;21034;-83
2022/10/21 02:50:50;;;;;;;4.57;1.73;;;19.00;69.90;;;;;;2344409;53;20931;-82
2022/10/21 02:53:18;;;;;;;4.32;2.08;;;19.00;69.90;;;;;;2453770;53;21415;-82
2022/10/21 02:55:47;;;;;;;4.70;2.20;;;19.00;69.90;;;;;;2451885;53;20990;-82
2022/10/21 02:58:13;;;;;;;4.82;2.50;;;19.10;70.00;;;;;;2412111;53;21475;-82
2022/10/21 03:00:39;;;;;;;7.85;2.75;;;19.10;70.10;;;;;;2347031;53;21787;-82
2022/10/21 03:03:06;;;;;;;7.72;3.22;;;19.10;70.10;;;;;;2347059;53;20993;-82
2022/10/21 03:05:32;;;;;;;4.85;2.60;;;19.10;70.10;;;;;;2349763;53;21058;-82
2022/10/21 03:07:59;;;;;;;6.55;3.40;;;19.10;70.10;;;;;;2577537;53;20900;-82
2022/10/21 03:10:26;;;;;;;6.55;3.28;;;19.10;70.10;;;;;;2365972;53;21031;-82
2022/10/21 03:12:53;;;;;;;7.32;3.45;;;19.20;70.10;;;;;;2346995;53;20939;-82
2022/10/21 03:15:20;;;;;;;7.05;3.05;;;19.20;70.10;;;;;;2375710;53;20947;-83
2022/10/21 03:17:47;;;;;;;5.60;3.30;;;19.20;70.10;;;;;;2360778;53;21008;-82
2022/10/21 03:20:13;;;;;;;6.45;3.50;;;19.20;70.10;;;;;;2437065;53;21050;-82
2022/10/21 03:22:40;;;;;;;5.90;3.25;;;19.20;70.10;;;;;;2341679;53;20935;-83
2022/10/21 03:25:07;;;;;;;5.22;2.90;;;19.30;70.10;;;;;;2457615;53;20919;-82
2022/10/21 03:27:33;;;;;;;4.82;2.62;;;19.30;70.10;;;;;;2409563;53;20968;-83
2022/10/21 03:29:59;;;;;;;7.95;3.42;;;19.30;70.00;;;;;;2363408;53;21369;-82
2022/10/21 03:32:26;;;;;;;5.18;2.87;;;19.30;69.80;;;;;;2472645;53;20986;-82
2022/10/21 03:34:54;;;;;;;6.32;4.12;;;19.30;69.70;;;;;;2589431;53;20979;-82
2022/10/21 03:37:20;;;;;;;5.75;3.17;;;19.30;69.60;;;;;;2384754;53;20953;-82
2022/10/21 03:39:47;;;;;;;5.97;3.37;;;19.40;69.80;;;;;;2385456;53;21811;-82
2022/10/21 03:42:14;;;;;;;5.20;3.20;;;19.30;69.60;;;;;;2389871;53;20935;-84
2022/10/21 03:44:40;;;;;;;5.53;3.45;;;19.30;69.60;;;;;;2500522;53;21547;-83
2022/10/21 03:47:06;;;;;;;7.53;2.70;;;19.30;69.60;;;;;;2378723;53;20923;-82
2022/10/21 03:49:33;;;;;;;4.97;2.97;;;19.30;69.50;;;;;;2349775;53;21073;-82
2022/10/21 03:51:59;;;;;;;5.40;2.97;;;19.30;69.50;;;;;;2368545;53;21023;-82
2022/10/21 03:54:26;;;;;;;4.55;2.40;;;19.30;69.50;;;;;;2342205;53;20917;-83
2022/10/21 03:56:52;;;;;;;6.03;2.78;;;19.30;69.60;;;;;;2372889;53;20948;-84
2022/10/21 03:59:19;;;;;;;5.32;2.62;;;19.30;69.60;;;;;;2320181;53;20927;-83
2022/10/21 04:01:45;;;;;;;4.85;2.53;;;19.40;69.80;;;;;;2343750;54;20947;-82
2022/10/21 04:04:11;;;;;;;5.70;2.65;;;19.30;69.70;;;;;;2373614;53;22566;-82
2022/10/21 04:06:37;;;;;;;5.30;2.15;;;19.30;69.70;;;;;;2563650;53;20880;-82
2022/10/21 04:09:05;;;;;;;5.60;2.60;;;19.30;69.60;;;;;;2364421;53;21027;-83
2022/10/21 04:11:31;;;;;;;5.62;2.97;;;19.30;69.60;;;;;;2349062;53;21720;-83
2022/10/21 04:13:58;;;;;;;4.65;3.15;;;19.30;69.50;;;;;;2351229;53;20939;-82
2022/10/21 04:16:24;;;;;;;5.60;3.08;;;19.40;69.60;;;;;;2434062;53;21033;-82
2022/10/21 04:18:51;;;;;;;6.15;3.33;;;19.30;69.50;;;;;;2342934;54;20943;-83
2022/10/21 04:21:17;;;;;;;6.90;3.70;;;19.30;69.50;;;;;;2353979;53;20944;-83
2022/10/21 04:23:44;;;;;;;6.07;3.75;;;19.30;69.50;;;;;;2399522;53;21019;-82
2022/10/21 04:26:11;;;;;;;5.95;3.83;;;19.30;69.50;;;;;;2347016;53;20921;-82
2022/10/21 04:28:37;;;;;;;6.75;4.12;;;19.30;69.40;;;;;;2345326;53;20971;-83
2022/10/21 04:31:05;;;;;;;7.90;4.20;;;19.30;69.40;;;;;;2370989;53;20995;-83
2022/10/21 04:33:31;;;;;;;6.15;3.97;;;19.30;69.30;;;;;;2376124;53;20979;-82
2022/10/21 04:35:59;;;;;;;4.90;3.35;;;19.30;69.40;;;;;;2389718;53;20940;-83
2022/10/21 04:38:27;;;;;;;5.43;3.28;;;19.30;69.40;;;;;;2331430;53;20931;-82
2022/10/21 04:41:00;;;;;;;4.78;3.45;;;19.30;69.40;;;;;;2343699;53;20987;-83
2022/10/21 04:43:27;;;;;;;8.43;3.90;;;19.30;69.50;;;;;;2344153;54;20927;-82
2022/10/21 04:45:53;;;;;;;4.82;3.33;;;19.20;69.40;;;;;;2346474;53;21065;-83
2022/10/21 04:48:20;;;;;;;6.62;3.60;;;19.20;69.40;;;;;;2589942;53;20914;-83
2022/10/21 04:50:50;;;;;;;5.20;3.37;;;19.20;69.40;;;;;;2350079;53;20939;-83
2022/10/21 04:53:17;;;;;;;7.75;4.47;;;19.20;69.40;;;;;;2358505;53;20911;-83
2022/10/21 04:55:44;;;;;;;6.60;4.90;;;19.20;69.40;;;;;;2364151;53;20947;-84
2022/10/21 04:58:13;;;;;;;7.10;4.18;;;19.20;69.40;;;;;;2344438;53;20891;-83
2022/10/21 05:00:42;;;;;;;5.60;3.28;;;19.20;69.50;;;;;;2474722;53;20948;-83
2022/10/21 05:03:10;;;;;;;5.20;3.00;;;19.20;69.50;;;;;;2354618;53;21689;-84
2022/10/21 05:05:37;;;;;;;6.32;2.55;;;19.20;69.60;;;;;;2413457;53;20927;-84
2022/10/21 05:08:03;;;;;;;4.18;2.58;;;19.20;69.60;;;;;;2479495;53;20976;-84
2022/10/21 05:10:31;;;;;;;8.45;2.35;;;19.20;69.70;;;;;;2411145;53;20999;-83
2022/10/21 05:12:58;;;;;;;6.12;2.12;;;19.20;69.70;;;;;;2347860;53;20987;-84
2022/10/21 05:15:24;;;;;;;2.92;1.60;;;19.20;69.80;;;;;;2346393;53;21587;-83
2022/10/21 05:17:51;;;;;;;5.25;1.92;;;19.20;69.80;;;;;;2409907;53;21748;-83
2022/10/21 05:20:18;;;;;;;6.03;1.85;;;19.20;69.90;;;;;;2345959;53;21019;-83
2022/10/21 05:22:44;;;;;;;5.78;2.17;;;19.20;70.00;;;;;;2373588;53;21059;-84
2022/10/21 05:25:11;;;;;;;4.28;1.90;;;19.20;70.10;;;;;;2340982;53;20943;-83
2022/10/21 05:27:37;;;;;;;6.78;2.75;;;19.30;70.20;;;;;;2414088;53;20931;-83
2022/10/21 05:30:07;;;;;;;10.82;3.80;;;19.30;70.30;;;;;;2345746;53;20927;-83
2022/10/21 05:32:34;;;;;;;7.72;3.12;;;19.30;70.30;;;;;;2343618;54;20923;-83
2022/10/21 05:35:01;;;;;;;8.98;2.50;;;19.30;70.40;;;;;;2342770;53;21808;-83
2022/10/21 05:37:27;;;;;;;5.70;2.10;;;19.30;70.40;;;;;;2343788;53;20982;-83
2022/10/21 05:39:54;;;;;;;5.22;1.73;;;19.40;70.60;;;;;;2343325;53;20931;-83
2022/10/21 05:42:24;;;;;;;8.10;2.00;;;19.30;70.50;;;;;;2344063;53;21015;-83
2022/10/21 05:44:50;;;;;;;5.82;2.37;;;19.40;70.60;;;;;;2373644;53;21472;-84
2022/10/21 05:47:16;;;;;;;7.10;2.37;;;19.40;70.60;;;;;;2384331;53;21740;-84
2022/10/21 05:49:43;;;;;;;4.53;2.25;;;19.40;70.70;;;;;;2390721;53;20931;-83
2022/10/21 05:52:11;;;;;;;5.68;2.50;;;19.40;70.70;;;;;;2465358;53;20984;-83
2022/10/21 05:54:37;;;;;;;4.87;1.50;;;19.50;70.90;;;;;;2342640;53;20915;-83
2022/10/21 05:57:03;;;;;;;5.72;1.95;;;19.50;70.80;;;;;;2344198;54;20895;-84
2022/10/21 05:59:31;;;;;;;5.07;1.50;;;19.50;70.80;;;;;;2343185;53;20948;-84
2022/10/21 06:01:58;;;;;;;5.95;2.10;;;19.50;70.90;;;;;;2391357;53;20990;-84
2022/10/21 06:04:24;;;;;;;4.68;1.20;;;19.50;70.80;;;;;;2343562;53;20930;-84
2022/10/21 06:06:52;;;;;;;4.18;1.48;;;19.60;70.90;;;;;;2399929;53;21030;-84
2022/10/21 06:09:18;;;;;;;4.65;1.27;;;19.50;70.80;;;;;;2384477;53;20947;-84
2022/10/21 06:11:45;;;;;;;5.28;1.25;;;19.60;70.80;;;;;;2343805;54;20995;-84
2022/10/21 06:14:12;;;;;;;3.15;1.15;;;19.60;70.80;;;;;;2488571;53;20964;-82
2022/10/21 06:16:40;;;;;;;5.97;1.42;;;19.60;70.80;;;;;;2343900;53;21594;-84
2022/10/21 06:19:07;;;;;;;6.80;1.37;;;19.60;70.70;;;;;;2343572;53;21006;-84
2022/10/21 06:21:34;;;;;;;3.35;0.98;;;19.60;70.70;;;;;;2369019;53;20911;-84
2022/10/21 06:24:00;;;;;;;4.25;1.10;;;19.60;70.70;;;;;;2349476;53;21068;-83
2022/10/21 06:26:27;;;;;;;3.47;1.27;;;19.70;70.80;;;;;;2333442;53;21011;-83
2022/10/21 06:28:53;;;;;;;3.28;1.37;;;19.70;70.80;;;;;;2380728;53;21503;-83
2022/10/21 06:31:20;;;;;;;2.25;0.73;;;19.70;70.80;;;;;;2344409;53;20907;-83
2022/10/21 06:33:46;;;;;;;4.32;1.00;;;19.70;70.70;;;;;;2504882;53;20968;-84
2022/10/21 06:36:13;;;;;;;3.47;0.90;;;19.70;70.70;;;;;;2343969;53;20929;-83
2022/10/21 06:38:39;;;;;;;3.25;1.25;;;19.70;70.60;;;;;;2458693;53;20991;-84
2022/10/21 06:41:07;;;;;;;2.05;0.93;;;19.70;70.60;;;;;;2363199;53;20927;-83
2022/10/21 06:43:33;;;;;;;5.12;0.80;;;19.70;70.70;;;;;;2425158;53;20934;-83
2022/10/21 06:46:04;;;;;;;1.98;0.70;;;19.70;70.60;;;;;;2344035;53;20955;-84
2022/10/21 06:48:30;;;;;;;3.22;1.20;;;19.70;71.30;;;;;;2352639;53;20956;-83
2022/10/21 06:51:01;;;;;;;2.50;0.80;;;19.70;70.50;;;;;;2436541;53;20943;-84
2022/10/21 06:53:27;;;;;;;4.95;0.90;;;19.70;70.60;;;;;;2347452;53;20931;-83
2022/10/21 06:56:27;;;;;;;2.75;0.73;;;19.70;70.60;;;;;;2343943;53;21673;-84
2022/10/21 06:58:55;;;;;;;3.22;1.05;;;19.80;70.70;;;;;;2349638;53;21410;-83
2022/10/21 07:01:25;;;;;;;3.17;0.80;;;19.80;70.70;;;;;;2434271;53;21012;-82
2022/10/21 07:03:53;;;;;;;4.87;1.60;;;19.80;70.70;;;;;;2341518;53;21455;-85
2022/10/21 07:06:23;;;;;;;4.72;0.98;;;19.80;70.70;;;;;;2345109;53;20999;-82
2022/10/21 07:08:49;;;;;;;3.15;0.82;;;19.80;70.60;;;;;;2353366;53;20943;-84
2022/10/21 07:11:23;;;;;;;2.67;0.60;;;19.80;70.70;;;;;;2325068;53;21019;-83
2022/10/21 07:13:50;;;;;;;2.75;0.93;;;19.80;70.70;;;;;;2356677;53;21010;-83
2022/10/21 07:16:27;;;;;;;3.35;0.80;;;19.80;70.70;;;;;;2329719;53;20982;-83
2022/10/21 07:18:54;;;;;;;2.62;0.70;;;19.80;70.60;;;;;;2344344;53;20975;-83
2022/10/21 07:21:25;;;;;;;3.08;0.90;;;19.80;70.60;;;;;;2442467;53;21022;-83
2022/10/21 07:23:53;;;;;;;3.17;0.90;;;19.80;70.70;;;;;;2344012;54;20919;-82
2022/10/21 07:26:20;;;;;;;4.32;0.77;;;19.80;70.60;;;;;;2353653;53;20963;-82
2022/10/21 07:28:48;;;;;;;2.58;0.80;;;19.80;70.70;;;;;;2346846;53;21817;-82
2022/10/21 07:31:29;;;;;;;2.83;0.70;;;19.80;70.70;;;;;;2364944;53;21377;-82
2022/10/21 07:33:57;;;;;;;2.40;0.90;;;19.80;70.70;;;;;;2386667;53;21283;-83
2022/10/21 07:36:26;;;;;;;3.90;1.10;;;19.80;70.70;;;;;;2352500;53;20975;-82
2022/10/21 07:38:55;;;;;;;2.60;1.20;;;19.80;71.40;;;;;;2494839;53;21050;-82
2022/10/21 07:41:24;;;;;;;6.87;2.15;;;19.80;70.70;;;;;;2350958;53;21171;-82
2022/10/21 07:43:50;;;;;;;5.80;2.08;;;19.80;70.70;;;;;;2342940;53;20982;-83
2022/10/21 07:46:17;;;;;;;5.00;1.60;;;19.90;70.70;;;;;;2343248;53;20988;-82
2022/10/21 07:48:43;;;;;;;4.10;1.60;;;19.80;70.70;;;;;;2346082;53;21053;-82
2022/10/21 07:51:11;;;;;;;3.45;1.58;;;19.80;70.50;;;;;;2343575;53;21376;-82
2022/10/21 07:53:38;;;;;;;8.65;2.30;;;19.90;70.60;;;;;;2391400;53;21305;-80
2022/10/21 07:56:06;;;;;;;3.72;1.60;;;19.80;70.50;;;;;;2342850;53;20919;-81
2022/10/21 07:58:32;;;;;;;2.55;1.12;;;19.80;70.50;;;;;;2343654;54;22321;-81
2022/10/21 08:01:01;;;;;;;3.58;1.48;;;19.80;70.50;;;;;;2393569;53;21927;-82
2022/10/21 08:03:27;;;;;;;5.37;1.40;;;19.80;70.60;;;;;;2344087;54;21451;-81
2022/10/21 08:05:55;;;;;;;3.03;1.12;;;19.80;70.60;;;;;;2374775;53;20911;-81
2022/10/21 08:08:21;;;;;;;4.62;1.30;;;19.80;70.60;;;;;;2373037;53;20939;-83
2022/10/21 08:10:48;;;;;;;4.32;1.65;;;19.80;70.60;;;;;;2343105;53;21007;-82
2022/10/21 08:13:15;;;;;;;3.15;1.65;;;19.80;70.70;;;;;;2344641;53;20959;-81
2022/10/21 08:15:49;;;;;;;5.15;1.58;;;19.80;70.70;;;;;;2343589;53;21011;-81
2022/10/21 08:18:18;;;;;;;4.60;1.45;;;19.80;70.70;;;;;;2488302;53;20911;-81
2022/10/21 08:20:45;;;;;;;3.10;1.15;;;19.80;70.70;;;;;;2343296;54;20952;-83
2022/10/21 08:23:11;;;;;;;2.97;0.90;;;19.80;70.70;;;;;;2374312;53;20995;-80
2022/10/21 08:25:38;;;;;;;2.20;0.90;;;19.80;70.70;;;;;;2353218;53;20936;-80
2022/10/21 08:28:04;;;;;;;2.95;1.00;;;19.80;70.70;;;;;;2343606;53;21030;-81
2022/10/21 08:30:31;;;;;;;2.05;0.80;;;19.80;70.70;;;;;;2382393;53;21070;-81
2022/10/21 08:32:58;;;;;;;1.90;0.68;;;19.80;70.70;;;;;;2343632;54;20943;-81
2022/10/21 08:35:28;;;;;;;2.83;0.52;;;19.80;70.80;;;;;;2354916;53;20991;-83
2022/10/21 08:37:54;;;;;;;1.42;0.52;;;19.80;70.80;;;;;;2397280;53;20943;-81
2022/10/21 08:40:22;;;;;;;1.33;0.50;;;19.80;70.80;;;;;;2382634;53;20971;-83
2022/10/21 08:42:48;;;;;;;1.55;0.55;;;19.80;70.80;;;;;;2394995;53;20956;-81
2022/10/21 08:46:10;;;;;;;3.00;0.98;;;19.80;70.80;;;;;;2337109;53;20940;-80
2022/10/21 08:48:41;;;;;;;1.98;0.80;;;19.80;70.90;;;;;;2343153;54;21023;-81
2022/10/21 08:51:10;;;;;;;1.87;0.62;;;19.90;70.80;;;;;;2343599;53;20923;-81
2022/10/21 08:53:40;;;;;;;2.10;0.80;;;19.90;70.80;;;;;;2427721;53;20983;-81
2022/10/21 08:56:13;;;;;;;3.72;1.02;;;19.90;70.80;;;;;;2343586;53;20934;-80
2022/10/21 08:58:44;;;;;;;2.45;0.60;;;19.90;70.80;;;;;;2354524;53;20971;-79
2022/10/21 09:02:08;;;;;;;2.28;0.75;;;19.90;70.70;;;;;;2346540;53;21507;-83
2022/10/21 09:04:55;;;;;;;1.45;0.55;;;19.90;70.70;;;;;;2344016;54;21026;-80
2022/10/21 09:09:40;;;;;;;1.48;0.55;;;19.90;70.80;;;;;;2389463;53;21011;-80
2022/10/21 09:12:15;;;;;;;;;;;19.90;70.80;;;;;;2368285;53;20987;-81
2022/10/21 09:15:09;;;;;;;2.08;0.68;;;19.90;70.70;;;;;;2359190;53;20067;-81
2022/10/21 09:22:50;;;;;;;1.95;0.70;;;19.90;70.70;;;;;;2346027;53;20951;-82
2022/10/21 09:26:47;;;;;;;4.45;0.90;;;19.90;70.60;;;;;;2343313;53;21563;-80
2022/10/21 09:29:29;;;;;;;2.78;0.93;;;19.90;70.70;;;;;;2343757;54;20983;-80
2022/10/21 09:32:01;;;;;;;3.87;1.35;;;19.90;70.70;;;;;;2385443;53;20951;-81
2022/10/21 09:34:38;;;;;;;;;;;19.90;70.70;;;;;;2346987;53;20955;-80
2022/10/21 09:37:05;;;;;;;2.92;0.90;;;19.90;70.70;;;;;;2373330;53;20062;-82
2022/10/21 09:39:41;;;;;;;1.90;0.90;;;19.90;70.70;;;;;;2380805;53;20978;-82
2022/10/21 09:42:11;;;;;;;3.42;1.10;;;19.90;70.80;;;;;;2526286;53;20926;-80
2022/10/21 09:44:44;;;;;;;2.17;0.95;;;19.90;70.80;;;;;;2363075;53;20943;-80
2022/10/21 09:47:23;;;;;;;2.47;1.10;;;19.90;70.80;;;;;;2353328;53;20975;-81
2022/10/21 09:49:54;;;;;;;3.58;1.40;;;20.00;71.00;;;;;;2343661;53;20927;-81
2022/10/21 09:52:32;;;;;;;2.85;0.88;;;20.00;71.00;;;;;;2437394;53;21351;-80
2022/10/21 09:54:59;;;;;;;3.15;0.95;;;20.00;71.70;;;;;;2395792;53;20944;-80
2022/10/21 09:59:17;;;;;;;2.40;0.80;;;20.00;70.90;;;;;;2344077;53;20978;-80
2022/10/21 10:01:43;;;;;;;2.53;0.68;;;20.00;70.70;;;;;;2468559;53;21006;-80
2022/10/21 10:04:29;;;;;;;2.08;0.80;;;20.00;70.60;;;;;;2373298;53;20940;-81
2022/10/21 10:06:57;;;;;;;2.80;0.82;;;20.00;70.60;;;;;;2550893;53;21448;-81
2022/10/21 10:09:33;;;;;;;2.05;0.70;;;20.00;70.60;;;;;;2402097;53;21085;-81
2022/10/21 10:12:21;;;;;;;4.80;1.20;;;20.00;70.70;;;;;;2590009;53;20982;-81
2022/10/21 10:14:47;;;;;;;3.40;0.90;;;20.00;70.50;;;;;;2346152;53;21551;-80
2022/10/21 10:17:48;;;;;;;2.42;0.90;;;20.00;70.60;;;;;;2344591;53;21036;-81
2022/10/21 10:20:19;;;;;;;3.67;1.37;;;20.00;70.50;;;;;;2369418;53;21783;-80
2022/10/21 10:23:08;;;;;;;4.50;0.70;;;20.00;70.60;;;;;;2419837;53;20936;-82
2022/10/21 10:25:36;;;;;;;2.35;1.00;;;20.00;70.50;;;;;;2346651;54;20932;-81
2022/10/21 10:28:21;;;;;;;2.45;0.80;;;20.00;70.50;;;;;;2390535;53;21863;-82
2022/10/21 10:30:52;;;;;;;1.95;0.90;;;20.00;70.50;;;;;;2423831;53;20967;-81
2022/10/21 10:33:29;;;;;;;3.17;0.70;;;20.00;70.60;;;;;;2344753;53;20931;-81
2022/10/21 10:36:18;;;;;;;1.37;0.52;;;20.00;70.50;;;;;;2396819;53;20987;-82
2022/10/21 10:38:54;;;;;;;1.70;0.68;;;20.00;70.50;;;;;;2429639;53;20934;-82
2022/10/21 10:41:27;;;;;;;1.67;0.52;;;20.00;70.60;;;;;;2521448;53;20919;-81
2022/10/21 10:43:54;;;;;;;2.08;0.80;;;20.00;70.60;;;;;;2365779;53;20892;-81
2022/10/21 10:46:25;;;;;;;2.30;0.60;;;20.00;70.60;;;;;;2364714;53;20998;-81
2022/10/21 10:48:54;;;;;;;2.47;0.50;;;20.00;70.70;;;;;;2467346;53;20940;-80
2022/10/21 10:51:31;;;;;;;1.77;0.50;;;20.10;70.80;;;;;;2370757;53;20955;-81
2022/10/21 10:54:22;;;;;;;1.95;0.55;;;20.10;70.70;;;;;;2395505;53;20932;-81
2022/10/21 10:58:42;;;;;;;1.30;0.52;;;20.10;70.50;;;;;;2354385;53;20895;-82
2022/10/21 11:01:12;;;;;;;1.73;0.45;;;20.10;70.30;;;;;;2340217;53;21052;-81
2022/10/21 11:03:44;;;;;;;1.60;0.60;;;20.20;70.50;;;;;;2398113;53;20883;-82
2022/10/21 11:06:18;;;;;;;2.67;0.60;;;20.20;70.50;;;;;;2391617;53;20963;-82
2022/10/21 11:08:49;;;;;;;1.60;0.60;;;20.10;70.30;;;;;;2379491;53;21040;-82
2022/10/21 11:11:35;;;;;;;1.37;0.50;;;20.10;70.30;;;;;;2343757;54;20939;-82
2022/10/21 11:14:01;;;;;;;1.67;0.60;;;20.20;70.50;;;;;;2407814;53;20907;-82
2022/10/21 11:17:04;;;;;;;1.85;0.70;;;20.20;70.40;;;;;;2343825;54;20966;-82
2022/10/21 11:19:44;;;;;;;2.20;0.80;;;20.20;70.40;;;;;;2344687;53;20931;-81
2022/10/21 11:22:22;;;;;;;2.85;0.82;;;20.20;70.30;;;;;;2343377;53;20903;-81
2022/10/21 11:24:55;;;;;;;2.72;0.82;;;20.20;70.40;;;;;;2328696;54;20970;-82
2022/10/21 11:27:48;;;;;;;8.63;1.65;;;20.10;70.30;;;;;;2436906;53;20956;-82
2022/10/21 11:30:22;;;;;;;1.73;0.60;;;20.10;70.30;;;;;;2392865;53;20990;-82
2022/10/21 11:36:08;;;;;;;3.97;0.90;;;20.20;70.40;;;;;;2439185;53;21429;-81
2022/10/21 11:42:18;;;;;;;2.60;0.80;;;20.10;70.30;;;;;;2347697;53;20985;-82
2022/10/21 11:46:15;;;;;;;3.35;0.75;;;20.10;70.10;;;;;;2346213;53;20907;-81
2022/10/21 11:57:07;;;;;;;2.33;0.70;;;20.10;70.10;;;;;;2476432;53;21064;-81
2022/10/21 12:00:38;;;;;;;3.95;0.70;;;20.10;70.30;;;;;;2343838;53;20955;-82
2022/10/21 12:03:38;;;;;;;2.45;0.70;;;20.00;70.10;;;;;;2343431;53;20930;-81
2022/10/21 12:06:29;;;;;;;2.05;0.70;;;20.00;70.30;;;;;;2342608;53;20966;-80
2022/10/21 12:09:03;;;;;;;2.15;0.60;;;20.00;70.40;;;;;;2347484;53;21079;-81
2022/10/21 12:11:45;;;;;;;3.65;0.60;;;20.00;70.50;;;;;;2332684;53;20975;-78
2022/10/21 12:14:22;;;;;;;1.17;0.60;;;20.00;70.60;;;;;;2344198;53;21814;-81
2022/10/21 12:16:51;;;;;;;2.00;0.68;;;20.00;70.60;;;;;;2433292;53;20928;-81
2022/10/21 12:19:17;;;;;;;3.25;0.60;;;20.00;70.70;;;;;;2434323;53;20951;-81
2022/10/21 12:21:45;;;;;;;2.28;0.80;;;20.00;70.70;;;;;;2435607;53;21038;-81
2022/10/21 12:25:23;;;;;;;2.00;0.60;;;19.90;70.60;;;;;;2343851;53;21504;-81
2022/10/21 12:31:02;;;;;;;2.00;0.50;;;20.00;70.80;;;;;;2342993;54;20947;-81
2022/10/21 12:33:38;;;;;;;2.70;0.65;;;20.00;70.70;;;;;;2343146;54;20912;-81
2022/10/21 12:36:18;;;;;;;1.87;0.50;;;20.00;70.50;;;;;;2397078;53;21034;-80
2022/10/21 12:38:55;;;;;;;1.65;0.57;;;20.00;70.60;;;;;;2446084;53;20948;-81
2022/10/21 12:41:33;;;;;;;2.37;0.70;;;20.00;70.80;;;;;;2343707;53;20884;-82
2022/10/21 12:44:20;;;;;;;3.08;0.65;;;20.00;70.80;;;;;;2371792;53;21458;-81
2022/10/21 12:46:55;;;;;;;1.40;0.60;;;20.00;70.80;;;;;;2393475;53;20935;-81
2022/10/21 12:49:31;;;;;;;3.37;0.60;;;20.00;70.90;;;;;;2344057;53;21020;-81
2022/10/21 12:52:21;;;;;;;1.80;0.45;;;20.00;70.90;;;;;;2384119;53;20915;-81
2022/10/21 12:55:19;;;;;;;1.35;0.50;;;20.00;70.90;;;;;;2346018;53;20975;-81
2022/10/21 12:57:58;;;;;;;0.90;0.35;;;20.00;70.80;;;;;;2438054;53;20931;-81
2022/10/21 13:01:31;;;;;;;1.50;0.40;;;20.00;70.80;;;;;;2461600;53;20990;-82
2022/10/21 13:03:57;;;;;;;;;;;20.00;70.70;;;;;;2347016;54;20927;-81
2022/10/21 13:06:52;;;;;;;1.75;0.40;;;20.00;70.60;;;;;;2445649;53;20649;-80
2022/10/21 13:12:54;;;;;;;1.42;0.50;;;20.00;70.50;;;;;;2379622;53;21094;-81
2022/10/21 13:15:45;;;;;;;1.80;0.40;;;20.00;70.40;;;;;;2328738;54;21000;-80
2022/10/21 13:18:11;;;;;;;1.48;0.43;;;20.00;70.30;;;;;;2345413;53;20960;-81
2022/10/21 13:20:44;;;;;;;1.58;0.47;;;19.90;70.30;;;;;;2328887;53;21473;-80
2022/10/21 13:23:52;;;;;;;1.58;0.30;;;19.90;70.40;;;;;;2372340;53;20940;-79
2022/10/21 13:26:22;;;;;;;0.82;0.30;;;19.90;70.50;;;;;;2337454;53;21464;-79
2022/10/21 13:31:13;;;;;;;1.75;0.50;;;19.90;70.60;;;;;;2354372;53;21853;-78
2022/10/21 13:33:51;;;;;;;0.70;0.30;;;19.90;70.40;;;;;;2351444;53;20920;-80
2022/10/21 13:36:27;;;;;;;0.85;0.30;;;19.90;70.40;;;;;;2360895;53;20948;-79
2022/10/21 13:38:54;;;;;;;0.90;0.40;;;19.90;70.50;;;;;;2342933;53;20974;-79
2022/10/21 13:41:28;;;;;;;1.08;0.45;;;19.90;70.60;;;;;;2344063;53;21065;-80
2022/10/21 13:43:58;;;;;;;1.77;0.50;;;19.90;70.60;;;;;;2345983;53;20949;-79
2022/10/21 13:46:29;;;;;;;;;;;19.90;70.70;;;;;;2350089;53;20951;-79
2022/10/21 13:48:59;;;;;;;1.35;0.30;;;19.90;70.50;;;;;;2343313;53;20066;-79
2022/10/21 13:51:28;;;;;;;1.08;0.35;;;19.90;70.50;;;;;;2345686;53;20923;-79
2022/10/21 13:54:11;;;;;;;1.90;0.40;;;19.90;70.60;;;;;;2589720;53;21038;-79
2022/10/21 13:56:38;;;;;;;1.00;0.40;;;19.90;70.70;;;;;;2352550;53;21000;-79
2022/10/21 13:59:05;;;;;;;0.88;0.40;;;19.80;70.50;;;;;;2367362;53;21007;-79
2022/10/21 14:01:46;;;;;;;1.83;0.55;;;19.90;70.70;;;;;;2344685;53;20952;-79
2022/10/21 14:04:21;;;;;;;2.03;0.40;;;19.80;70.60;;;;;;2425893;53;20939;-79
2022/10/21 14:06:52;;;;;;;1.30;0.37;;;19.90;70.70;;;;;;2473692;53;21805;-78